ADDS METAR Data INFO
IDs: Format: Raw Decoded Include TAF

Data at: 1411 UTC 12 Dec 2017

KCLW 121355Z AUTO 00000KT 10SM SCT047 16/13 A3006 RMK AO2
KCLW 121335Z AUTO 00000KT 10SM SCT040 BKN047 13/12 A3006 RMK AO2
KCLW 121315Z AUTO 00000KT 10SM SCT041 BKN048 13/12 A3006 RMK AO2
KCLW 121255Z AUTO 00000KT 10SM BKN046 12/11 A3006 RMK AO2
KCLW 121235Z AUTO 00000KT 10SM BKN046 12/11 A3006 RMK AO2
KCLW 121215Z AUTO 18003KT 10SM BKN044 11/11 A3006 RMK AO2
KCLW 121155Z AUTO 18005KT 10SM SCT042 11/11 A3006 RMK AO2
KCLW 121135Z AUTO 17003KT 10SM BKN042 11/11 A3006 RMK AO2
KCLW 121115Z AUTO 18005KT 10SM SCT042 11/10 A3005 RMK AO2
KCLW 121055Z AUTO 17004KT 10SM SCT038 SCT044 11/10 A3005 RMK AO2
KCLW 121035Z AUTO 17004KT 10SM SCT044 11/10 A3005 RMK AO2
KCLW 121015Z AUTO 17004KT 10SM SCT046 11/10 A3006 RMK AO2
KCLW 120955Z AUTO 18003KT 10SM SCT044 11/10 A3006 RMK AO2
KCLW 120935Z AUTO 17005KT 10SM SCT042 11/10 A3007 RMK AO2
KCLW 120915Z AUTO 18004KT 10SM SCT042 10/09 A3008 RMK AO2
KCLW 120855Z AUTO 18004KT 10SM CLR 10/09 A3008 RMK AO2
KCLW 120835Z AUTO 17004KT 10SM SCT034 10/09 A3008 RMK AO2
KCLW 120815Z AUTO 18004KT 10SM SCT034 10/08 A3008 RMK AO2
KCLW 120755Z AUTO 18006KT 10SM SCT034 10/08 A3009 RMK AO2
KCLW 120735Z AUTO 18006KT 10SM CLR 10/07 A3009 RMK AO2
KCLW 120715Z AUTO 18006KT 10SM CLR 09/07 A3010 RMK AO2
KCLW 120655Z AUTO 18003KT 10SM CLR 09/07 A3010 RMK AO2
KCLW 120635Z AUTO 18004KT 10SM CLR 08/06 A3011 RMK AO2
KCLW 120615Z AUTO 00000KT 10SM CLR 08/06 A3012 RMK AO2
KCLW 120555Z AUTO 17003KT 10SM CLR 08/07 A3013 RMK AO2
KCLW 120535Z AUTO 00000KT 10SM CLR 08/06 A3013 RMK AO2
KCLW 120515Z AUTO 18003KT 10SM CLR 08/06 A3014 RMK AO2
KCLW 120455Z AUTO 00000KT 10SM CLR 07/06 A3015 RMK AO2
KCLW 120435Z AUTO 00000KT 10SM CLR 07/06 A3016 RMK AO2
KCLW 120415Z AUTO 00000KT 10SM CLR 07/06 A3016 RMK AO2
KCLW 120355Z AUTO 00000KT 10SM CLR 07/06 A3017 RMK AO2
KCLW 120335Z AUTO 00000KT 10SM CLR 07/06 A3018 RMK AO2
KCLW 120315Z AUTO 00000KT 10SM CLR 07/06 A3018 RMK AO2
KCLW 120255Z AUTO 00000KT 10SM CLR 07/06 A3018 RMK AO2
KCLW 120235Z AUTO 00000KT 10SM CLR 08/06 A3019 RMK AO2
KCLW 120215Z AUTO 00000KT 10SM CLR 08/06 A3018 RMK AO2
KCLW 120155Z AUTO 00000KT 10SM CLR 08/06 A3019 RMK AO2
KCLW 120135Z AUTO 00000KT 10SM CLR 08/06 A3019 RMK AO2
KCLW 120115Z AUTO 00000KT 10SM CLR 08/06 A3020 RMK AO2
KCLW 120055Z AUTO 00000KT 10SM CLR 08/06 A3020 RMK AO2
KCLW 120035Z AUTO 00000KT 10SM CLR 09/06 A3019 RMK AO2
KCLW 120015Z AUTO 00000KT 10SM CLR 09/06 A3019 RMK AO2
KCLW 112355Z AUTO 00000KT 10SM CLR 10/06 A3019 RMK AO2
KCLW 112335Z AUTO 00000KT 10SM CLR 10/06 A3020 RMK AO2
KCLW 112315Z AUTO 00000KT 10SM CLR 10/05 A3019 RMK AO2
KCLW 112255Z AUTO 00000KT 10SM CLR 11/06 A3019 RMK AO2
KCLW 112235Z AUTO 00000KT 10SM CLR 12/05 A3019 RMK AO2
KCLW 112215Z AUTO 31005KT 10SM CLR 12/06 A3019 RMK AO2
KCLW 112155Z AUTO 30004KT 10SM CLR 13/05 A3019 RMK AO2
KCLW 112135Z AUTO 31004KT 10SM CLR 13/05 A3020 RMK AO2
KCLW 112115Z AUTO 30004KT 10SM CLR 13/05 A3019 RMK AO2
KCLW 112055Z AUTO 35007KT 10SM CLR 14/05 A3019 RMK AO2
KCLW 112035Z AUTO 32005KT 10SM CLR 13/05 A3019 RMK AO2
KCLW 112015Z AUTO 35005KT 10SM CLR 14/05 A3020 RMK AO2
KCLW 111955Z AUTO 32004KT 10SM CLR 14/04 A3020 RMK AO2
KCLW 111935Z AUTO 34005KT 10SM CLR 14/04 A3021 RMK AO2
KCLW 111915Z AUTO 29005KT 10SM CLR 15/04 A3021 RMK AO2
KCLW 111855Z AUTO 33008KT 10SM CLR 15/03 A3021 RMK AO2
KCLW 111835Z AUTO 33007KT 10SM CLR 15/03 A3022 RMK AO2
KCLW 111815Z AUTO 30006KT 10SM CLR 15/03 A3023 RMK AO2
KCLW 111755Z AUTO 34007KT 10SM CLR 15/03 A3024 RMK AO2
KCLW 111735Z AUTO 35003KT 10SM CLR 14/03 A3024 RMK AO2
KCLW 111715Z AUTO 32006KT 10SM CLR 14/03 A3025 RMK AO2
KCLW 111655Z AUTO 34005KT 10SM CLR 14/03 A3027 RMK AO2
KCLW 111635Z AUTO 33006KT 10SM CLR 13/03 A3027 RMK AO2
KCLW 111615Z AUTO 33007KT 10SM CLR 13/03 A3028 RMK AO2
KCLW 111555Z AUTO 34004KT 10SM CLR 13/02 A3029 RMK AO2
KCLW 111535Z AUTO 01007KT 10SM CLR 12/01 A3030 RMK AO2
KCLW 111515Z AUTO 03006KT 10SM CLR 11/00 A3030 RMK AO2
KCLW 111455Z AUTO 03006KT 10SM CLR 11/00 A3031 RMK AO2
KCLW 111435Z AUTO 03004KT 10SM CLR 10/00 A3031 RMK AO2
KCLW 111415Z AUTO 05004KT 10SM CLR 09/M01 A3032 RMK AO2
KCLW 111355Z AUTO 05005KT 10SM CLR 08/M01 A3032 RMK AO2
KCLW 111335Z AUTO 05004KT 10SM CLR 08/00 A3032 RMK AO2
KCLW 111315Z AUTO 06004KT 10SM CLR 07/00 A3032 RMK AO2
KCLW 111255Z AUTO 07003KT 10SM CLR 07/00 A3031 RMK AO2
KCLW 111235Z AUTO 03003KT 10SM CLR 06/00 A3031 RMK AO2
KCLW 111215Z AUTO 04003KT 10SM CLR 06/00 A3030 RMK AO2
KCLW 111155Z AUTO 02004KT 10SM CLR 06/01 A3030 RMK AO2
KCLW 111135Z AUTO 04003KT 10SM CLR 06/00 A3030 RMK AO2
KCLW 111115Z AUTO 03006KT 10SM CLR 06/01 A3029 RMK AO2
KCLW 111055Z AUTO 00000KT 10SM CLR 06/02 A3029 RMK AO2
KCLW 111035Z AUTO 00000KT 10SM CLR 05/03 A3029 RMK AO2
KCLW 111015Z AUTO 00000KT 10SM CLR 06/03 A3029 RMK AO2
KCLW 110955Z AUTO 00000KT 10SM CLR 06/03 A3029 RMK AO2
KCLW 110935Z AUTO 00000KT 10SM CLR 06/03 A3029 RMK AO2
KCLW 110915Z AUTO 07003KT 10SM CLR 06/03 A3029 RMK AO2
KCLW 110855Z AUTO 04003KT 10SM CLR 06/04 A3029 RMK AO2
KCLW 110835Z AUTO 08004KT 10SM CLR 06/05 A3029 RMK AO2
KCLW 110815Z AUTO 00000KT 10SM CLR 05/04 A3029 RMK AO2
KCLW 110755Z AUTO 00000KT 10SM CLR 05/04 A3029 RMK AO2
KCLW 110735Z AUTO 00000KT 10SM CLR 05/04 A3029 RMK AO2
KCLW 110715Z AUTO 00000KT 10SM CLR 05/03 A3029 RMK AO2
KCLW 110655Z AUTO 00000KT 10SM CLR 06/04 A3030 RMK AO2
KCLW 110635Z AUTO 00000KT 10SM CLR 05/04 A3029 RMK AO2
KCLW 110615Z AUTO 00000KT 10SM CLR 06/04 A3030 RMK AO2
KCLW 110555Z AUTO 00000KT 10SM CLR 06/04 A3030 RMK AO2
KCLW 110535Z AUTO 00000KT 10SM CLR 06/04 A3031 RMK AO2
KCLW 110515Z AUTO 00000KT 10SM CLR 06/04 A3031 RMK AO2
KCLW 110455Z AUTO 00000KT 10SM CLR 06/04 A3031 RMK AO2
KCLW 110435Z AUTO 00000KT 10SM CLR 05/04 A3032 RMK AO2
KCLW 110415Z AUTO 00000KT 10SM CLR 06/04 A3032 RMK AO2
KCLW 110355Z AUTO 00000KT 10SM CLR 06/04 A3032 RMK AO2
KCLW 110335Z AUTO 00000KT 10SM CLR 06/03 A3033 RMK AO2
KCLW 110315Z AUTO 00000KT 10SM CLR 06/03 A3032 RMK AO2
KCLW 110255Z AUTO 00000KT 10SM CLR 06/04 A3032 RMK AO2
KCLW 110235Z AUTO 00000KT 10SM CLR 06/04 A3032 RMK AO2
KCLW 110215Z AUTO 00000KT 10SM CLR 06/03 A3032 RMK AO2